createdAt,value
2019-05-16T00:00:21.766Z,2.12
2019-05-16T00:02:49.640Z,2.33
2019-05-16T00:05:18.793Z,2.30
2019-05-16T00:07:49.213Z,2.52
2019-05-16T00:10:18.532Z,2.47
2019-05-16T00:12:48.417Z,2.40
2019-05-16T00:15:18.014Z,2.25
2019-05-16T00:17:45.459Z,2.52
2019-05-16T00:20:13.793Z,2.20
2019-05-16T00:22:41.638Z,2.17
2019-05-16T00:25:09.529Z,2.00
2019-05-16T00:27:38.693Z,2.08
2019-05-16T00:30:09.002Z,1.80
2019-05-16T00:32:38.710Z,1.98
2019-05-16T00:35:06.179Z,2.27
2019-05-16T00:37:34.146Z,2.17
2019-05-16T00:40:02.119Z,2.30
2019-05-16T00:42:30.112Z,2.30
2019-05-16T00:44:58.383Z,1.92
2019-05-16T00:47:28.414Z,2.35
2019-05-16T00:52:48.762Z,2.37
2019-05-16T00:55:17.939Z,2.20
2019-05-16T00:57:48.154Z,2.22
2019-05-16T01:00:18.027Z,2.05
2019-05-16T01:02:45.553Z,2.30
2019-05-16T01:05:14.618Z,2.37
2019-05-16T01:07:42.657Z,2.10
2019-05-16T01:10:10.616Z,1.90
2019-05-16T01:12:38.999Z,2.15
2019-05-16T01:15:07.723Z,2.10
2019-05-16T01:17:35.776Z,1.92
2019-05-16T01:20:03.681Z,2.00
2019-05-16T01:22:31.635Z,2.30
2019-05-16T01:24:59.517Z,1.95
2019-05-16T01:27:27.796Z,1.92
2019-05-16T01:29:58.222Z,2.05
2019-05-16T01:32:25.605Z,2.20
2019-05-16T01:34:53.548Z,1.87
2019-05-16T01:37:21.412Z,1.90
2019-05-16T01:39:49.372Z,2.00
2019-05-16T01:42:18.441Z,2.17
2019-05-16T01:44:48.576Z,2.10
2019-05-16T01:47:18.224Z,2.17
2019-05-16T01:49:45.940Z,2.00
2019-05-16T01:52:13.922Z,2.10
2019-05-16T01:54:41.821Z,2.20
2019-05-16T01:57:09.753Z,1.85
2019-05-16T01:59:38.118Z,1.92
2019-05-16T02:02:08.193Z,1.87
2019-05-16T02:04:37.827Z,2.12
2019-05-16T02:07:05.354Z,2.00
2019-05-16T02:09:33.283Z,2.00
2019-05-16T02:12:01.169Z,2.00
2019-05-16T02:14:29.091Z,2.00
2019-05-16T02:16:58.124Z,1.90
2019-05-16T02:19:27.995Z,1.98
2019-05-16T02:21:55.681Z,2.05
2019-05-16T02:24:23.562Z,2.10
2019-05-16T02:26:52.444Z,2.27
2019-05-16T02:29:20.687Z,1.90
2019-05-16T02:31:51.361Z,2.15
2019-05-16T02:34:21.461Z,2.10
2019-05-16T02:37:09.538Z,1.95
2019-05-16T02:39:17.628Z,2.08
2019-05-16T02:41:46.188Z,2.10
2019-05-16T02:44:14.404Z,2.10
2019-05-16T02:46:42.384Z,2.02
2019-05-16T02:49:11.522Z,1.90
2019-05-16T02:51:40.644Z,2.60
2019-05-16T02:54:11.058Z,2.50
2019-05-16T02:56:41.465Z,6.00
2019-05-16T02:59:11.666Z,5.05
2019-05-16T03:01:40.691Z,2.95
2019-05-16T03:04:10.780Z,2.58
2019-05-16T03:06:37.417Z,3.40
2019-05-16T03:09:05.952Z,2.90
2019-05-16T03:11:33.978Z,2.80
2019-05-16T03:14:02.903Z,3.08
2019-05-16T03:16:50.643Z,2.90
2019-05-16T03:19:21.424Z,2.95
2019-05-16T03:21:50.884Z,2.98
2019-05-16T03:24:20.517Z,3.80
2019-05-16T03:26:47.678Z,4.92
2019-05-16T03:29:15.553Z,4.92
2019-05-16T03:31:45.205Z,5.17
2019-05-16T03:34:16.479Z,5.28
2019-05-16T03:36:44.393Z,6.92
2019-05-16T03:39:12.530Z,5.22
2019-05-16T03:41:41.449Z,4.67
2019-05-16T03:44:11.259Z,3.65
2019-05-16T03:46:41.339Z,3.70
2019-05-16T03:49:11.295Z,3.35
2019-05-16T03:51:41.231Z,3.20
2019-05-16T03:54:12.035Z,2.90
2019-05-16T03:56:40.575Z,2.65
2019-05-16T03:59:10.727Z,2.77
2019-05-16T04:01:40.669Z,2.67
2019-05-16T04:04:06.896Z,2.58
2019-05-16T04:06:34.785Z,2.42
2019-05-16T04:09:02.838Z,2.52
2019-05-16T04:11:32.205Z,2.65
2019-05-16T04:14:01.427Z,3.42
2019-05-16T04:16:31.279Z,2.47
2019-05-16T04:19:01.847Z,2.22
2019-05-16T04:21:32.333Z,2.20
2019-05-16T04:24:01.227Z,2.30
2019-05-16T04:26:30.814Z,2.45
2019-05-16T04:29:00.818Z,2.30
2019-05-16T04:31:30.782Z,2.33
2019-05-16T04:34:00.858Z,2.30
2019-05-16T04:36:27.462Z,2.65
2019-05-16T04:38:55.435Z,2.40
2019-05-16T04:41:23.411Z,2.27
2019-05-16T04:43:51.421Z,2.50
2019-05-16T04:46:21.317Z,2.47
2019-05-16T04:48:50.848Z,2.27
2019-05-16T04:51:21.603Z,2.15
2019-05-16T04:53:50.721Z,2.22
2019-05-16T04:56:17.837Z,2.00
2019-05-16T04:58:45.793Z,2.37
2019-05-16T05:01:13.835Z,2.30
2019-05-16T05:03:59.698Z,2.47
2019-05-16T05:06:11.605Z,2.40
2019-05-16T05:08:52.971Z,2.65
2019-05-16T05:11:10.722Z,2.52
2019-05-16T05:13:41.253Z,2.30
2019-05-16T05:16:10.668Z,2.55
2019-05-16T05:18:40.645Z,2.50
2019-05-16T05:21:07.902Z,2.20
2019-05-16T05:23:35.861Z,2.30
2019-05-16T05:26:03.763Z,2.30
2019-05-16T05:28:31.699Z,2.17
2019-05-16T05:30:59.991Z,2.77
2019-05-16T05:33:30.288Z,2.47
2019-05-16T05:35:57.603Z,2.40
2019-05-16T05:38:25.787Z,2.92
2019-05-16T05:40:53.670Z,2.65
2019-05-16T05:43:21.995Z,2.30
2019-05-16T05:45:51.267Z,2.42
2019-05-16T05:48:21.534Z,2.40
2019-05-16T05:50:50.843Z,2.60
2019-05-16T05:53:20.874Z,2.50
2019-05-16T05:55:51.020Z,2.50
2019-05-16T05:58:20.381Z,2.42
2019-05-16T06:00:47.802Z,2.62
2019-05-16T06:03:15.669Z,2.55
2019-05-16T06:05:43.504Z,2.20
2019-05-16T06:08:11.389Z,2.50
2019-05-16T06:10:40.554Z,2.20
2019-05-16T06:13:10.933Z,2.10
2019-05-16T06:15:40.006Z,2.33
2019-05-16T06:18:07.943Z,2.37
2019-05-16T06:20:37.547Z,2.40
2019-05-16T06:23:05.457Z,2.27
2019-05-16T06:25:33.377Z,4.67
2019-05-16T06:28:01.348Z,5.30
2019-05-16T06:30:30.560Z,5.37
2019-05-16T06:32:59.674Z,3.12
2019-05-16T06:35:29.746Z,3.22
2019-05-16T06:37:57.323Z,5.72
2019-05-16T06:40:25.267Z,3.52
2019-05-16T06:42:53.240Z,3.12
2019-05-16T06:45:21.123Z,2.98
2019-05-16T06:47:50.424Z,2.70
2019-05-16T06:50:20.877Z,2.35
2019-05-16T06:52:50.145Z,2.40
2019-05-16T06:55:17.799Z,2.20
2019-05-16T06:57:45.698Z,2.40
2019-05-16T07:00:13.631Z,2.60
2019-05-16T07:02:41.541Z,2.35
2019-05-16T07:05:10.330Z,2.40
2019-05-16T07:07:40.494Z,2.20
2019-05-16T07:10:09.824Z,2.20
2019-05-16T07:12:37.782Z,2.25
2019-05-16T07:15:05.652Z,2.10
2019-05-16T07:17:33.619Z,2.47
2019-05-16T07:20:01.496Z,2.25
2019-05-16T07:22:31.265Z,1.80
2019-05-16T07:24:59.867Z,1.92
2019-05-16T07:27:30.657Z,1.67
2019-05-16T07:30:00.506Z,1.60
2019-05-16T07:32:30.006Z,1.50
2019-05-16T07:34:56.957Z,1.50
2019-05-16T07:37:24.848Z,1.25
2019-05-16T07:39:52.825Z,1.47
2019-05-16T07:42:20.775Z,1.25
2019-05-16T07:44:50.548Z,1.10
2019-05-16T07:47:20.254Z,1.35
2019-05-16T07:49:50.001Z,1.30
2019-05-16T07:52:20.634Z,1.30
2019-05-16T07:54:47.281Z,1.15
2019-05-16T07:57:19.457Z,1.45
2019-05-16T07:59:44.957Z,1.40
2019-05-16T08:02:12.787Z,1.30
2019-05-16T08:04:40.751Z,1.15
2019-05-16T08:07:10.752Z,1.17
2019-05-16T08:09:39.712Z,1.40
2019-05-16T08:12:07.742Z,1.40
2019-05-16T08:14:35.742Z,1.20
2019-05-16T08:17:03.681Z,1.20
2019-05-16T08:19:31.627Z,1.10
2019-05-16T08:22:01.379Z,1.10
2019-05-16T08:24:30.955Z,1.30
2019-05-16T08:27:01.177Z,1.07
2019-05-16T08:29:31.064Z,1.30
2019-05-16T08:32:01.853Z,1.10
2019-05-16T08:34:27.693Z,1.00
2019-05-16T08:36:55.578Z,1.20
2019-05-16T08:39:23.423Z,1.50
2019-05-16T08:41:52.112Z,1.00
2019-05-16T08:44:21.521Z,1.12
2019-05-16T08:46:57.060Z,1.25
2019-05-16T08:49:22.104Z,1.00
2019-05-16T08:51:52.882Z,1.17
2019-05-16T08:54:21.334Z,1.17
2019-05-16T08:56:50.982Z,1.40
2019-05-16T08:59:21.214Z,1.35
2019-05-16T09:01:53.386Z,1.22
2019-05-16T09:04:17.258Z,1.20
2019-05-16T09:06:45.302Z,1.30
2019-05-16T09:09:29.777Z,1.30
2019-05-16T09:11:45.256Z,1.40
2019-05-16T09:14:12.463Z,1.50
2019-05-16T09:16:40.367Z,1.30
2019-05-16T09:19:08.329Z,1.50
2019-05-16T09:21:38.356Z,1.60
2019-05-16T09:24:06.881Z,1.60
2019-05-16T09:26:38.098Z,1.40
2019-05-16T09:29:08.012Z,1.50
2019-05-16T09:31:34.633Z,1.80
2019-05-16T09:34:02.510Z,2.47
2019-05-16T09:36:30.404Z,1.75
2019-05-16T09:38:58.345Z,1.57
2019-05-16T09:41:28.737Z,1.47
2019-05-16T09:43:59.273Z,1.60
2019-05-16T09:46:27.553Z,1.80
2019-05-16T09:49:15.264Z,1.70
2019-05-16T09:51:27.168Z,1.67
2019-05-16T09:53:56.616Z,1.37
2019-05-16T09:56:24.055Z,1.52
2019-05-16T09:58:51.934Z,1.82
2019-05-16T10:01:19.793Z,1.80
2019-05-16T10:03:48.033Z,1.70
2019-05-16T10:06:19.090Z,1.90
2019-05-16T10:08:46.417Z,2.08
2019-05-16T10:11:17.815Z,2.12
2019-05-16T10:13:46.923Z,2.10
2019-05-16T10:16:13.815Z,1.87
2019-05-16T10:18:41.664Z,1.87
2019-05-16T10:21:09.660Z,2.25
2019-05-16T10:23:37.674Z,2.20
2019-05-16T10:26:05.581Z,1.95
2019-05-16T10:28:33.521Z,2.02
2019-05-16T10:31:01.492Z,2.15
2019-05-16T10:33:29.355Z,1.90
2019-05-16T10:35:58.053Z,1.92
2019-05-16T10:38:28.488Z,1.80
2019-05-16T10:40:56.575Z,1.45
2019-05-16T10:43:26.439Z,1.80
2019-05-16T10:45:54.356Z,1.47
2019-05-16T10:48:22.207Z,1.70
2019-05-16T10:50:50.111Z,1.82
2019-05-16T10:53:51.463Z,2.00
2019-05-16T10:55:47.828Z,2.00
2019-05-16T10:58:35.052Z,1.90
2019-05-16T11:01:07.373Z,2.83
2019-05-16T11:03:17.027Z,2.27
2019-05-16T11:05:59.336Z,1.98
2019-05-16T11:08:14.899Z,2.40
2019-05-16T11:10:42.906Z,1.77
2019-05-16T11:13:10.889Z,1.90
2019-05-16T11:15:38.756Z,1.92
2019-05-16T11:18:06.986Z,1.40
2019-05-16T11:20:37.182Z,1.70
2019-05-16T11:23:07.704Z,1.50
2019-05-16T11:25:36.530Z,1.60
2019-05-16T11:28:04.836Z,1.40
2019-05-16T11:30:33.721Z,1.75
2019-05-16T11:33:01.679Z,1.60
2019-05-16T11:35:29.660Z,1.60
2019-05-16T11:37:57.751Z,1.62
2019-05-16T11:40:25.657Z,1.50
2019-05-16T11:43:06.748Z,1.70
2019-05-16T11:45:23.840Z,1.77
2019-05-16T11:47:51.783Z,1.82
2019-05-16T11:50:19.742Z,1.75
2019-05-16T11:52:48.946Z,1.57
2019-05-16T11:55:16.999Z,1.67
2019-05-16T11:57:47.951Z,1.77
2019-05-16T12:00:18.964Z,1.85
2019-05-16T12:02:47.862Z,2.00
2019-05-16T12:05:17.228Z,2.00
2019-05-16T12:07:48.331Z,2.00
2019-05-16T12:10:16.399Z,1.72
2019-05-16T12:12:44.465Z,2.22
2019-05-16T12:15:12.352Z,8.73
2019-05-16T12:17:40.407Z,8.83
2019-05-16T12:20:08.429Z,3.42
2019-05-16T12:22:37.728Z,2.98
2019-05-16T12:25:08.103Z,2.30
2019-05-16T12:27:42.259Z,2.60
2019-05-16T12:30:13.627Z,2.40
2019-05-16T12:32:40.794Z,2.40
2019-05-16T12:35:08.811Z,2.30
2019-05-16T12:37:37.380Z,2.40
2019-05-16T12:40:07.073Z,2.72
2019-05-16T12:42:36.492Z,2.40
2019-05-16T12:45:07.069Z,2.37
2019-05-16T12:47:37.508Z,2.60
2019-05-16T12:50:07.111Z,2.55
2019-05-16T12:52:38.025Z,2.27
2019-05-16T12:55:04.499Z,2.52
2019-05-16T12:57:33.743Z,2.30
2019-05-16T13:00:01.785Z,2.25
2019-05-16T13:02:31.227Z,2.52
2019-05-16T13:05:00.478Z,2.02
2019-05-16T13:07:28.556Z,2.00
2019-05-16T13:10:01.790Z,2.30
2019-05-16T13:12:31.100Z,2.30
2019-05-16T13:14:59.195Z,2.45
2019-05-16T13:17:28.537Z,2.50
2019-05-16T13:19:57.602Z,2.10
2019-05-16T13:22:27.569Z,2.27
2019-05-16T13:24:57.483Z,2.10
2019-05-16T13:27:26.329Z,2.00
2019-05-16T13:29:54.454Z,2.20
2019-05-16T13:32:27.062Z,2.30
2019-05-16T13:34:58.703Z,2.20
2019-05-16T13:37:27.449Z,1.90
2019-05-16T13:39:56.887Z,2.22
2019-05-16T13:42:27.375Z,2.05
2019-05-16T13:44:57.534Z,2.35
2019-05-16T13:47:26.875Z,2.60
2019-05-16T13:49:54.823Z,2.08
2019-05-16T13:52:23.006Z,2.40
2019-05-16T13:54:51.089Z,2.40
2019-05-16T13:57:19.172Z,2.00
2019-05-16T13:59:47.219Z,2.30
2019-05-16T14:02:17.382Z,2.27
2019-05-16T14:04:47.913Z,2.45
2019-05-16T14:07:17.175Z,2.20
2019-05-16T14:09:47.125Z,2.45
2019-05-16T14:12:17.474Z,2.70
2019-05-16T14:14:47.679Z,2.50
2019-05-16T14:17:17.940Z,2.50
2019-05-16T14:19:48.289Z,2.72
2019-05-16T14:22:17.504Z,2.60
2019-05-16T14:24:48.226Z,2.70
2019-05-16T14:27:17.293Z,2.62
2019-05-16T14:29:47.620Z,2.50
2019-05-16T14:32:19.391Z,2.30
2019-05-16T14:34:50.955Z,2.37
2019-05-16T14:37:17.101Z,2.40
2019-05-16T14:39:44.620Z,2.25
2019-05-16T14:42:12.750Z,2.17
2019-05-16T14:44:59.748Z,2.35
2019-05-16T14:47:17.677Z,2.35
2019-05-16T14:49:44.188Z,2.70
2019-05-16T14:52:12.318Z,2.52
2019-05-16T14:54:47.098Z,2.60
2019-05-16T14:57:12.457Z,1.98
2019-05-16T14:59:41.934Z,2.33
2019-05-16T15:02:09.993Z,2.60
2019-05-16T15:04:38.148Z,2.62
2019-05-16T15:07:06.973Z,2.70
2019-05-16T15:09:38.067Z,2.85
2019-05-16T15:12:06.846Z,2.40
2019-05-16T15:14:37.462Z,2.33
2019-05-16T15:17:07.001Z,2.30
2019-05-16T15:19:39.324Z,2.30
2019-05-16T15:22:08.068Z,2.12
2019-05-16T15:24:37.652Z,2.33
2019-05-16T15:27:08.155Z,2.42
2019-05-16T15:29:37.585Z,1.98
2019-05-16T15:32:07.633Z,1.95
2019-05-16T15:34:39.560Z,2.20
2019-05-16T15:37:08.125Z,1.90
2019-05-16T15:39:39.525Z,1.92
2019-05-16T15:42:08.228Z,2.12
2019-05-16T15:44:36.968Z,2.22
2019-05-16T15:47:07.396Z,2.05
2019-05-16T15:49:37.564Z,1.98
2019-05-16T15:52:07.110Z,1.87
2019-05-16T15:54:37.823Z,2.00
2019-05-16T15:57:06.870Z,2.27
2019-05-16T15:59:37.643Z,2.27
2019-05-16T16:02:17.778Z,2.33
2019-05-16T16:04:47.803Z,2.10
2019-05-16T16:07:17.553Z,2.20
2019-05-16T16:09:49.510Z,2.10
2019-05-16T16:12:17.592Z,2.00
2019-05-16T16:14:46.960Z,2.20
2019-05-16T16:17:17.498Z,2.40
2019-05-16T16:19:46.915Z,2.08
2019-05-16T16:22:17.653Z,2.00
2019-05-16T16:24:47.872Z,2.15
2019-05-16T16:27:16.823Z,2.10
2019-05-16T16:29:49.143Z,2.30
2019-05-16T16:32:17.431Z,2.10
2019-05-16T16:34:49.070Z,2.30
2019-05-16T16:37:17.311Z,2.30
2019-05-16T16:39:47.188Z,2.20
2019-05-16T16:42:16.447Z,2.22
2019-05-16T16:44:47.056Z,2.30
2019-05-16T16:47:14.267Z,2.05
2019-05-16T16:49:42.295Z,2.25
2019-05-16T16:52:10.345Z,2.20
2019-05-16T16:54:38.421Z,2.10
2019-05-16T16:57:07.740Z,2.05
2019-05-16T16:59:39.066Z,2.10
2019-05-16T17:02:09.045Z,1.90
2019-05-16T17:04:38.660Z,1.80
2019-05-16T17:07:09.706Z,2.00
2019-05-16T17:09:37.738Z,2.27
2019-05-16T17:12:08.494Z,2.00
2019-05-16T17:14:37.096Z,2.10
2019-05-16T17:17:07.086Z,2.25
2019-05-16T17:19:36.773Z,2.20
2019-05-16T17:22:17.042Z,2.05
2019-05-16T17:24:37.839Z,2.58
2019-05-16T17:27:07.831Z,2.67
2019-05-16T17:29:36.929Z,2.50
2019-05-16T17:32:10.005Z,2.40
2019-05-16T17:34:37.147Z,2.42
2019-05-16T17:37:08.983Z,2.40
2019-05-16T17:39:36.547Z,2.55
2019-05-16T17:42:03.999Z,2.50
2019-05-16T17:44:36.336Z,2.00
2019-05-16T17:47:06.893Z,2.65
2019-05-16T17:49:33.724Z,2.30
2019-05-16T17:52:01.731Z,2.55
2019-05-16T17:54:29.767Z,2.45
2019-05-16T17:56:57.716Z,2.58
2019-05-16T17:59:27.590Z,2.55
2019-05-16T18:01:56.903Z,2.70
2019-05-16T18:04:26.668Z,2.77
2019-05-16T18:06:57.543Z,3.10
2019-05-16T18:09:24.372Z,3.27
2019-05-16T18:11:52.379Z,2.95
2019-05-16T18:14:20.383Z,3.22
2019-05-16T18:16:58.381Z,2.62
2019-05-16T18:19:18.054Z,3.02
2019-05-16T18:21:46.404Z,3.10
2019-05-16T18:24:16.874Z,3.12
2019-05-16T18:26:45.794Z,3.25
2019-05-16T18:29:13.754Z,2.80
2019-05-16T18:31:41.646Z,3.35
2019-05-16T18:34:09.709Z,3.42
2019-05-16T18:36:37.751Z,3.10
2019-05-16T18:39:06.540Z,3.52
2019-05-16T18:41:37.804Z,3.67
2019-05-16T18:44:05.760Z,3.42
2019-05-16T18:46:33.634Z,3.27
2019-05-16T18:49:01.694Z,3.17
2019-05-16T18:51:31.321Z,3.02
2019-05-16T18:54:00.160Z,3.08
2019-05-16T18:56:28.153Z,3.25
2019-05-16T18:58:57.248Z,2.90
2019-05-16T19:01:26.906Z,2.77
2019-05-16T19:03:57.177Z,2.87
2019-05-16T19:06:27.413Z,2.98
2019-05-16T19:08:56.302Z,3.10
2019-05-16T19:11:24.314Z,3.08
2019-05-16T19:13:52.340Z,3.55
2019-05-16T19:16:20.466Z,3.80
2019-05-16T19:18:50.317Z,3.37
2019-05-16T19:21:18.293Z,3.42
2019-05-16T19:23:49.247Z,3.00
2019-05-16T19:26:17.237Z,3.50
2019-05-16T19:28:46.694Z,3.33
2019-05-16T19:31:16.989Z,3.30
2019-05-16T19:33:48.522Z,2.83
2019-05-16T19:36:16.456Z,2.67
2019-05-16T19:38:46.440Z,3.10
2019-05-16T19:41:13.763Z,2.85
2019-05-16T19:43:41.741Z,3.10
2019-05-16T19:46:09.652Z,3.50
2019-05-16T19:48:40.521Z,2.85
2019-05-16T19:51:08.513Z,3.25
2019-05-16T19:53:38.907Z,3.02
2019-05-16T19:56:07.404Z,3.27
2019-05-16T19:58:37.217Z,3.15
2019-05-16T20:01:05.162Z,3.00
2019-05-16T20:03:36.501Z,2.65
2019-05-16T20:06:04.729Z,2.75
2019-05-16T20:08:41.650Z,2.95
2019-05-16T20:11:09.665Z,2.72
2019-05-16T20:13:37.736Z,2.52
2019-05-16T20:16:05.897Z,2.67
2019-05-16T20:18:33.933Z,2.33
2019-05-16T20:21:01.979Z,2.50
2019-05-16T20:23:29.974Z,2.55
2019-05-16T20:25:58.056Z,2.70
2019-05-16T20:28:26.772Z,3.12
2019-05-16T20:30:57.098Z,2.70
2019-05-16T20:33:27.515Z,2.70
2019-05-16T20:35:57.529Z,2.55
2019-05-16T20:38:26.767Z,2.52
2019-05-16T20:40:59.487Z,2.80
2019-05-16T20:43:26.238Z,3.02
2019-05-16T20:45:56.599Z,2.70
2019-05-16T20:48:26.318Z,2.80
2019-05-16T20:50:56.463Z,2.85
2019-05-16T20:53:23.439Z,2.40
2019-05-16T20:55:51.444Z,2.70
2019-05-16T20:58:19.440Z,3.08
2019-05-16T21:00:49.751Z,3.47
2019-05-16T21:03:17.171Z,3.67
2019-05-16T21:05:48.105Z,3.17
2019-05-16T21:08:17.045Z,3.62
2019-05-16T21:10:46.391Z,3.15
2019-05-16T21:13:14.147Z,3.62
2019-05-16T21:15:42.032Z,3.47
2019-05-16T21:18:11.687Z,3.45
2019-05-16T21:20:39.575Z,4.12
2019-05-16T21:23:07.486Z,3.65
2019-05-16T21:25:37.142Z,4.17
2019-05-16T21:28:07.682Z,3.85
2019-05-16T21:30:36.748Z,3.72
2019-05-16T21:33:04.857Z,4.03
2019-05-16T21:35:32.870Z,3.90
2019-05-16T21:38:00.786Z,4.40
2019-05-16T21:40:31.266Z,4.10
2019-05-16T21:42:58.858Z,4.45
2019-05-16T21:45:28.696Z,4.67
2019-05-16T21:47:56.979Z,4.55
2019-05-16T21:50:27.327Z,4.10
2019-05-16T21:52:56.473Z,3.70
2019-05-16T21:55:24.340Z,4.75
2019-05-16T21:57:52.216Z,3.92
2019-05-16T22:00:21.391Z,4.40
2019-05-16T22:02:49.620Z,4.80
2019-05-16T22:05:17.653Z,3.92
2019-05-16T22:07:47.417Z,4.28
2019-05-16T22:10:15.369Z,3.85
2019-05-16T22:12:43.350Z,4.28
2019-05-16T22:15:11.307Z,4.47
2019-05-16T22:17:39.253Z,4.12
2019-05-16T22:20:07.234Z,4.80
2019-05-16T22:22:54.203Z,4.60
2019-05-16T22:25:22.216Z,4.10
2019-05-16T22:27:50.076Z,4.03
2019-05-16T22:30:18.792Z,4.15
2019-05-16T22:32:47.082Z,4.10
2019-05-16T22:35:16.811Z,4.00
2019-05-16T22:37:52.171Z,3.80
2019-05-16T22:40:17.051Z,4.15
2019-05-16T22:42:46.754Z,3.52
2019-05-16T22:45:17.585Z,4.00
2019-05-16T22:47:46.683Z,3.92
2019-05-16T22:50:14.815Z,3.87
2019-05-16T22:52:42.772Z,4.08
2019-05-16T22:55:10.656Z,4.00
2019-05-16T22:57:38.638Z,4.30
2019-05-16T23:00:07.581Z,3.90
2019-05-16T23:02:36.763Z,4.10
2019-05-16T23:05:07.164Z,4.08
2019-05-16T23:07:36.531Z,3.75
2019-05-16T23:10:04.249Z,4.03
2019-05-16T23:12:32.238Z,3.85
2019-05-16T23:15:00.093Z,3.90
2019-05-16T23:17:28.043Z,4.40
2019-05-16T23:19:56.809Z,4.05
2019-05-16T23:22:27.242Z,4.17
2019-05-16T23:24:56.881Z,3.80
2019-05-16T23:27:24.072Z,4.37
2019-05-16T23:29:51.969Z,4.20
2019-05-16T23:32:19.914Z,3.62
2019-05-16T23:34:47.783Z,4.58
2019-05-16T23:37:15.631Z,4.20
2019-05-16T23:39:43.499Z,3.60
2019-05-16T23:42:11.463Z,3.95
2019-05-16T23:44:39.443Z,4.53
2019-05-16T23:47:07.310Z,4.17
2019-05-16T23:49:36.669Z,4.05
2019-05-16T23:52:07.263Z,4.47
2019-05-16T23:54:36.741Z,4.20
2019-05-16T23:57:06.412Z,4.92
2019-05-16T23:59:34.044Z,4.12
